Signal Mountain, TN

3:32 PM EDT on April 19, 2015 (GMT -0400)
Winchester Municipal | | Change Station
CLOSE
Current Station
Airport
Location: Winchester,
Elevation: 978 ft
Nearby Weather Stations
Active Advisory: Flood Warning

Elev 978 ft 35.18 °N, 86.07 °W | Updated 17 minutes ago

Overcast
Overcast
73 °F
Feels Like 73 °F
N
12
Wind Variable Wind from SSW

Today
High -- | Low -- °F
--% Chance of Precip.
Yesterday
High -- | Low -- °F
Precip. -- in
7:04 AM 8:17 PM
New Moon, 2% visible
Pressure 29.67 in
Visibility 10.0 miles
Clouds Scattered Clouds 2700 ft
Scattered Clouds 3300 ft
Mostly Cloudy 4600 ft
Dew Point 63 °F
Humidity 69%
Rainfall 0.00 in
Snow Depth Not available.
UV 5 out of 12
Pollen 2.40 out of 12
Air Quality Not available.
Flu Activity Sporadic
METAR KBGF 191915Z AUTO 20010KT 10SM SCT027 SCT033 BKN046 23/17 A2967 RMK

More Conditions Fewer Conditions

Pressure 29.67 in
Visibility 10.0 miles
Clouds Scattered Clouds 2700 ft
Scattered Clouds 3300 ft
Mostly Cloudy 4600 ft
Dew Point 63 °F
Humidity 69%
Rainfall 0.00 in
Snow Depth Not available.
UV 5 out of 12
Pollen 2.40 out of 12
Air Quality Not available.
Flu Activity Sporadic
METAR KBGF 191915Z AUTO 20010KT 10SM SCT027 SCT033 BKN046 23/17 A2967 RMK

More Conditions Fewer Conditions

10-Day Weather Forecast

Almanac

Astronomy

Apr. 19, 2015 Rise Set
Actual Time
Civil Twilight
Nautical Twilight
Astronomical Twilight
Moon
Length of Visible Light
Length of Day
Tomorrow will be .
, % of the Moon is Illuminated

Today's Extremes

State Highs State Lows

Community

WunderPhotos

Upload Photos

1,814,944 photos uploaded!

WunderBlogs® & News

Nearby

Air Quality

  Air Quality AQ Index Pollutant
Not available.

Snow Depth

Station Depth Elevation

Earthquake Activity

City Distance Mag. Time & Date
Minimum magnitude displayed is 2.5.

Coastal Water Temperatures

Place Temperature

Stations

Nearby Weather Stations

Station Location Temp. Windchill Dew Point Humidity Wind Precip. Elev Updated Type
                   
Flood Warning
Statement as of 12:16 PM EDT on April 19, 2015

... Flood Warning extended until late tonight for
the lookout creek near New England.
* Until late tonight.
* At 12 PM Sunday the stage was 12.6 feet... and rising.
* Minor flooding will continue.
* Flood stage is 12 feet.
* The creek will continue rising to near 13 feet by this afternoon.
The creek will fall below flood stage tonight.
* At 13 feet... minor flooding expands along Sells Lane in
Trenton... Mason Road near Rising Fawn... and Creek Road near New
England. All these roads will be closed. Also minor flooding
expands much further downstream as the creek crosses the Tennessee
border into the tiftona area.


Lat... Lon 3503 8539 3502 8533 3484 8545 3471 8549
      3473 8556 3487 8553